Terminal Aerodrome Forecast
Issued by NWS Knoxville/Tri Cities, TN

Home | Current Version | Previous Version | Text Only | Print | Product List | Glossary On
Versions: 1 2 3 4 5 6 7 8 9 10 11 12 13 14 15 16 17 18 19 20 21 22 23 24 25 26 27 28 29 30 31 32
000
FTUS44 KMRX 282023 AAB
TAFTRI
TAF AMD
KTRI 282023Z 2820/2918 VRB05KT P6SM VCTS SCT050CB BKN150
      TEMPO 2820/2822 VRB08G20KT 4SM -TSRA BKN035CB
     FM290300 00000KT P6SM BKN035 BKN120
     FM290800 VRB03KT P6SM SCT050 BKN100=

USA.gov is the U.S. government's official web portal to all federal, state and local government web resources and services.